Time;durP1;ratioP1;P1;durP2;ratioP2;P2;SDS_P1;SDS_P2;PMS_P1;PMS_P2;Temp;Humidity;BMP_temperature;BMP_pressure;BME280_temperature;BME280_humidity;BME280_pressure;Samples;Min_cycle;Max_cycle;Signal;HPM_P1;HPM_P2
2022/10/15 00:00:45;;;;;;;26.48;20.70;;;;;;;12.91;78.25;100685.53;5030695;28;20675;-68
2022/10/15 00:03:10;;;;;;;27.95;20.80;;;;;;;12.88;77.74;100685.22;5031417;28;20017;-68
2022/10/15 00:05:37;;;;;;;29.50;21.58;;;;;;;12.86;77.82;100679.94;5032241;28;20049;-69
2022/10/15 00:08:02;;;;;;;28.33;21.42;;;;;;;12.87;77.77;100672.41;5031518;28;20076;-69
2022/10/15 00:10:28;;;;;;;26.80;22.65;;;;;;;12.86;78.34;100688.28;5021098;28;20776;-68
2022/10/15 00:12:53;;;;;;;27.67;22.88;;;;;;;12.87;78.66;100684.38;5029744;28;20025;-68
2022/10/15 00:15:19;;;;;;;27.95;22.30;;;;;;;12.85;78.59;100681.06;5029895;28;20493;-68
2022/10/15 00:17:44;;;;;;;27.20;21.77;;;;;;;12.88;78.95;100694.41;5031683;28;20033;-69
2022/10/15 00:20:10;;;;;;;27.95;22.45;;;;;;;12.92;79.05;100684.41;5031296;28;20021;-68
2022/10/15 00:22:36;;;;;;;28.42;22.67;;;;;;;12.93;79.14;100691.66;5031239;28;20026;-68
2022/10/15 00:25:03;;;;;;;27.95;23.17;;;;;;;12.90;79.49;100683.84;5030804;28;20053;-68
2022/10/15 00:27:28;;;;;;;29.80;23.08;;;;;;;13.01;80.11;100693.09;5031054;28;20100;-69
2022/10/15 00:29:54;;;;;;;28.80;23.70;;;;;;;12.97;79.86;100692.78;5029318;28;20120;-70
2022/10/15 00:32:19;;;;;;;30.08;24.10;;;;;;;13.01;80.19;100688.34;5028290;28;20397;-69
2022/10/15 00:34:45;;;;;;;30.15;23.95;;;;;;;13.00;80.54;100692.22;5011630;28;20029;-68
2022/10/15 00:37:10;;;;;;;29.17;24.08;;;;;;;13.06;80.59;100689.47;5011442;28;20045;-69
2022/10/15 00:39:36;;;;;;;32.45;25.05;;;;;;;13.07;81.89;100683.63;5027081;28;20029;-69
2022/10/15 00:42:02;;;;;;;31.45;25.00;;;;;;;13.08;81.61;100684.44;5031008;28;20091;-68
2022/10/15 00:44:30;;;;;;;28.98;23.95;;;;;;;13.12;81.46;100686.41;5029647;28;20025;-69
2022/10/15 00:47:06;;;;;;;30.27;25.33;;;;;;;13.14;81.57;100692.56;5031165;28;20045;-69
2022/10/15 00:49:36;;;;;;;29.83;23.17;;;;;;;13.18;81.74;100695.66;5028965;28;20017;-68
2022/10/15 00:52:13;;;;;;;28.25;24.27;;;;;;;13.16;82.02;100689.50;5030938;28;20037;-68
2022/10/15 00:54:41;;;;;;;29.20;23.80;;;;;;;13.17;82.14;100692.03;5026410;28;20030;-69
2022/10/15 00:57:08;;;;;;;29.60;24.73;;;;;;;13.18;82.44;100690.06;5029029;28;20037;-69
2022/10/15 00:59:37;;;;;;;28.40;24.65;;;;;;;13.20;82.17;100694.25;5031178;28;20108;-69
2022/10/15 01:02:04;;;;;;;27.40;23.17;;;;;;;13.22;82.26;100693.97;5030653;28;20030;-69
2022/10/15 01:04:30;;;;;;;25.95;22.77;;;;;;;13.25;82.40;100693.47;5030358;28;20033;-68
2022/10/15 01:06:55;;;;;;;27.65;23.60;;;;;;;13.24;82.69;100691.78;5028924;28;20358;-69
2022/10/15 01:09:21;;;;;;;26.08;22.63;;;;;;;13.26;82.41;100689.56;5029168;28;20057;-68
2022/10/15 01:11:49;;;;;;;27.25;22.38;;;;;;;13.27;82.87;100694.00;5010896;28;20363;-69
2022/10/15 01:14:24;;;;;;;30.50;23.10;;;;;;;13.30;82.76;100685.13;5028166;28;20045;-69
2022/10/15 01:17:03;;;;;;;25.40;22.52;;;;;;;13.30;82.96;100687.06;5030618;28;20021;-68
2022/10/15 01:19:37;;;;;;;26.58;21.90;;;;;;;13.34;82.48;100686.22;5028857;28;20078;-69
2022/10/15 01:22:26;;;;;;;26.23;23.35;;;;;;;13.33;83.02;100678.16;5014886;28;20029;-68
2022/10/15 01:25:16;;;;;;;24.98;22.38;;;;;;;13.32;82.78;100676.47;5022472;28;20017;-69
2022/10/15 01:27:44;;;;;;;24.05;21.45;;;;;;;13.31;83.12;100675.63;5021404;28;20511;-69
2022/10/15 01:30:25;;;;;;;24.88;22.05;;;;;;;13.37;83.09;100668.13;5034360;28;20041;-69
2022/10/15 01:33:28;;;;;;;26.42;22.17;;;;;;;13.39;83.10;100658.34;5034182;28;20029;-69
2022/10/15 01:36:04;;;;;;;26.27;22.13;;;;;;;13.33;83.31;100656.69;5022846;28;20600;-69
2022/10/15 01:38:58;;;;;;;27.02;22.48;;;;;;;13.35;83.55;100654.44;5032547;28;20469;-68
2022/10/15 01:41:43;;;;;;;23.00;20.55;;;;;;;13.38;82.99;100653.91;5035013;28;20038;-68
2022/10/15 01:44:16;;;;;;;24.73;21.48;;;;;;;13.35;83.59;100656.41;5034022;28;20064;-69
2022/10/15 01:46:46;;;;;;;24.65;22.02;;;;;;;13.33;83.83;100661.44;5031200;28;20504;-68
2022/10/15 01:49:14;;;;;;;26.20;21.48;;;;;;;13.38;83.62;100664.22;5031394;28;20040;-68
2022/10/15 01:51:41;;;;;;;22.40;20.08;;;;;;;13.36;83.27;100658.94;5031515;28;20090;-69
2022/10/15 01:54:12;;;;;;;22.92;20.52;;;;;;;13.37;83.43;100649.44;5032799;28;20052;-68
2022/10/15 01:56:39;;;;;;;25.23;21.52;;;;;;;13.41;83.57;100649.72;5034900;28;20017;-68
2022/10/15 01:59:06;;;;;;;22.88;20.48;;;;;;;13.42;83.37;100648.63;5032390;28;20033;-68
2022/10/15 02:01:31;;;;;;;23.42;21.00;;;;;;;13.41;83.39;100642.19;5033000;28;20033;-69
2022/10/15 02:03:56;;;;;;;24.63;20.50;;;;;;;13.41;83.64;100638.59;5031916;28;20029;-68
2022/10/15 02:06:30;;;;;;;22.05;19.85;;;;;;;13.43;83.39;100642.75;5032317;28;20424;-69
2022/10/15 02:09:29;;;;;;;23.17;20.88;;;;;;;13.48;83.15;100641.94;5029726;28;20425;-69
2022/10/15 02:12:04;;;;;;;23.75;21.15;;;;;;;13.46;83.16;100641.38;5032730;28;20065;-68
2022/10/15 02:14:51;;;;;;;26.40;21.67;;;;;;;13.47;83.23;100629.94;5033317;28;20384;-68
2022/10/15 02:17:21;;;;;;;22.67;20.27;;;;;;;13.46;83.75;100633.00;5032424;28;20037;-69
2022/10/15 02:20:13;;;;;;;21.90;19.65;;;;;;;13.49;83.61;100624.91;5032818;28;20044;-68
2022/10/15 02:23:03;;;;;;;23.05;20.50;;;;;;;13.46;83.95;100622.69;5033699;28;20044;-69
2022/10/15 02:25:28;;;;;;;23.75;20.17;;;;;;;13.44;83.75;100624.94;5032946;28;20025;-68
2022/10/15 02:27:56;;;;;;;23.92;21.25;;;;;;;13.42;83.91;100621.56;5018515;28;20041;-69
2022/10/15 02:30:23;;;;;;;22.92;20.45;;;;;;;13.44;83.47;100622.13;5019733;28;20029;-69
2022/10/15 02:32:53;;;;;;;23.15;20.75;;;;;;;13.42;83.99;100623.53;5034275;28;20034;-68
2022/10/15 02:35:21;;;;;;;24.45;21.80;;;;;;;13.42;83.78;100617.94;5032736;28;20469;-68
2022/10/15 02:37:50;;;;;;;24.50;21.95;;;;;;;13.39;84.03;100608.19;5032793;28;20036;-69
2022/10/15 02:40:16;;;;;;;23.85;21.13;;;;;;;13.42;83.95;100601.22;5031765;28;20071;-68
2022/10/15 02:42:41;;;;;;;24.17;21.55;;;;;;;13.44;84.21;100605.41;5032278;28;20038;-68
2022/10/15 02:45:07;;;;;;;24.00;21.40;;;;;;;13.42;84.22;100599.25;5033174;28;20116;-69
2022/10/15 02:47:33;;;;;;;27.27;21.55;;;;;;;13.43;84.01;100600.94;5032727;28;20048;-69
2022/10/15 02:49:58;;;;;;;26.70;22.13;;;;;;;13.44;84.32;100590.59;5030447;28;20037;-69
2022/10/15 02:52:23;;;;;;;24.70;21.42;;;;;;;13.45;84.21;100597.88;5032702;28;20033;-68
2022/10/15 02:54:48;;;;;;;24.20;21.10;;;;;;;13.44;84.20;100591.47;5033017;28;20079;-68
2022/10/15 02:57:14;;;;;;;25.42;21.90;;;;;;;13.43;84.47;100588.94;5030629;28;20060;-69
2022/10/15 02:59:39;;;;;;;25.30;22.70;;;;;;;13.43;84.40;100584.19;5032441;28;20029;-68
2022/10/15 03:02:05;;;;;;;25.35;22.63;;;;;;;13.44;83.97;100580.31;5031614;28;20021;-69
2022/10/15 03:04:30;;;;;;;26.30;21.92;;;;;;;13.43;84.36;100578.63;5032410;28;20036;-68
2022/10/15 03:06:55;;;;;;;26.50;21.95;;;;;;;13.43;84.32;100570.25;5032134;28;20033;-68
2022/10/15 03:09:21;;;;;;;25.90;23.08;;;;;;;13.37;84.34;100576.97;5031071;28;20029;-69
2022/10/15 03:11:46;;;;;;;25.02;22.35;;;;;;;13.41;84.86;100574.47;5029854;28;20022;-69
2022/10/15 03:14:11;;;;;;;25.45;22.27;;;;;;;13.40;84.49;100578.34;5032978;28;20088;-68
2022/10/15 03:16:36;;;;;;;23.80;21.15;;;;;;;13.41;84.68;100575.28;5032356;28;20029;-69
2022/10/15 03:19:02;;;;;;;25.05;22.00;;;;;;;13.38;84.88;100577.81;5031350;28;20434;-69
2022/10/15 03:21:29;;;;;;;25.77;21.83;;;;;;;13.38;84.88;100570.28;5032926;28;20029;-69
2022/10/15 03:23:55;;;;;;;26.75;22.50;;;;;;;13.38;84.61;100575.84;5031032;28;20029;-69
2022/10/15 03:26:20;;;;;;;24.42;21.88;;;;;;;13.38;84.66;100586.16;5030315;28;20018;-69
2022/10/15 03:28:45;;;;;;;26.98;22.02;;;;;;;13.38;84.45;100581.41;5031641;28;20030;-69
2022/10/15 03:31:12;;;;;;;26.65;21.65;;;;;;;13.39;85.15;100571.94;5031266;28;20072;-69
2022/10/15 03:33:37;;;;;;;25.25;20.63;;;;;;;13.41;84.32;100580.88;5032333;28;20033;-69
2022/10/15 03:36:03;;;;;;;27.27;21.00;;;;;;;13.39;84.86;100580.28;5031962;28;20074;-69
2022/10/15 03:38:28;;;;;;;25.70;21.80;;;;;;;13.40;85.01;100581.13;5030244;28;20025;-69
2022/10/15 03:40:53;;;;;;;30.30;22.77;;;;;;;13.42;85.13;100585.31;5026114;28;20038;-69
2022/10/15 03:43:19;;;;;;;27.67;22.42;;;;;;;13.39;85.15;100574.72;5020295;28;20029;-69
2022/10/15 03:45:44;;;;;;;25.52;21.30;;;;;;;13.42;85.36;100576.97;5030871;28;20095;-68
2022/10/15 03:48:09;;;;;;;30.90;22.50;;;;;;;13.41;85.26;100566.09;5029733;28;20032;-68
2022/10/15 03:50:34;;;;;;;27.83;21.85;;;;;;;13.42;85.25;100565.81;5030477;28;20492;-69
2022/10/15 03:53:03;;;;;;;28.48;22.77;;;;;;;13.44;85.26;100562.72;5030580;28;20034;-69
2022/10/15 03:55:29;;;;;;;27.15;22.48;;;;;;;13.42;85.44;100560.22;5027885;28;20034;-68
2022/10/15 03:57:54;;;;;;;27.10;22.25;;;;;;;13.45;85.23;100559.69;5026088;28;20036;-69
2022/10/15 04:00:19;;;;;;;27.77;23.20;;;;;;;13.43;85.00;100561.91;5030264;28;20040;-68
2022/10/15 04:02:44;;;;;;;29.08;22.30;;;;;;;13.45;85.14;100570.00;5032225;28;20044;-69
2022/10/15 04:05:10;;;;;;;28.17;22.90;;;;;;;13.43;85.38;100569.44;5030712;28;20021;-68
2022/10/15 04:07:35;;;;;;;26.45;23.17;;;;;;;13.42;85.29;100565.81;5030088;28;20029;-69
2022/10/15 04:10:00;;;;;;;28.10;23.17;;;;;;;13.44;85.19;100573.88;5031383;28;20408;-69
2022/10/15 04:12:26;;;;;;;30.15;22.55;;;;;;;13.41;85.58;100569.72;5029872;28;20045;-68
2022/10/15 04:14:51;;;;;;;31.10;23.65;;;;;;;13.40;85.58;100573.63;5030772;28;20133;-68
2022/10/15 04:17:16;;;;;;;30.70;23.60;;;;;;;13.42;85.52;100574.16;5030645;28;20029;-68
2022/10/15 04:19:41;;;;;;;31.05;24.23;;;;;;;13.40;85.65;100565.25;5028847;28;20027;-68
2022/10/15 04:22:07;;;;;;;32.15;24.15;;;;;;;13.42;85.39;100574.16;5031606;28;20464;-69
2022/10/15 04:24:32;;;;;;;30.70;24.33;;;;;;;13.42;85.75;100571.38;5031103;28;20041;-69
2022/10/15 04:26:57;;;;;;;33.13;25.48;;;;;;;13.40;85.62;100581.13;5028894;28;20021;-69
2022/10/15 04:29:22;;;;;;;30.60;25.88;;;;;;;13.41;86.07;100585.63;5030340;28;20052;-69
2022/10/15 04:31:48;;;;;;;34.28;26.48;;;;;;;13.41;85.98;100589.22;5030240;28;20526;-69
2022/10/15 04:34:13;;;;;;;32.90;25.40;;;;;;;13.43;86.05;100575.84;5030863;28;20464;-69
2022/10/15 04:36:39;;;;;;;31.90;26.38;;;;;;;13.43;86.24;100573.03;5029373;28;20033;-68
2022/10/15 04:39:05;;;;;;;33.40;27.30;;;;;;;13.42;86.09;100571.38;5017982;28;20432;-68
2022/10/15 04:41:31;;;;;;;35.67;28.20;;;;;;;13.41;86.42;100566.94;5028064;28;20025;-69
2022/10/15 04:43:57;;;;;;;35.40;26.55;;;;;;;13.43;86.28;100561.91;5030634;28;20037;-69
2022/10/15 04:46:22;;;;;;;37.15;27.10;;;;;;;13.44;86.16;100560.81;5029774;28;20388;-68
2022/10/15 04:48:47;;;;;;;34.67;26.60;;;;;;;13.47;85.85;100567.75;5029176;28;20025;-68
2022/10/15 04:51:16;;;;;;;37.15;27.80;;;;;;;13.47;86.01;100571.38;5029527;28;20033;-68
2022/10/15 04:53:42;;;;;;;36.70;26.90;;;;;;;13.49;86.25;100571.13;5029508;28;20524;-68
2022/10/15 04:56:12;;;;;;;36.80;28.25;;;;;;;13.47;86.14;100557.44;5018939;28;20105;-69
2022/10/15 04:58:38;;;;;;;35.30;26.48;;;;;;;13.50;86.27;100556.03;5023116;28;20472;-68
2022/10/15 05:01:10;;;;;;;34.88;27.25;;;;;;;13.50;86.41;100568.03;5026720;28;20053;-69
2022/10/15 05:03:37;;;;;;;35.85;28.23;;;;;;;13.54;85.91;100556.31;5029834;28;20520;-69
2022/10/15 05:06:11;;;;;;;33.30;27.00;;;;;;;13.54;86.29;100567.47;5029383;28;20527;-70
2022/10/15 05:08:40;;;;;;;37.03;28.42;;;;;;;13.53;85.88;100560.25;5030703;28;20074;-68
2022/10/15 05:11:09;;;;;;;34.55;26.30;;;;;;;13.54;85.82;100565.53;5028403;28;20025;-68
2022/10/15 05:13:35;;;;;;;36.60;25.77;;;;;;;13.54;86.13;100565.53;5028527;28;20383;-67
2022/10/15 05:16:20;;;;;;;34.15;26.33;;;;;;;13.56;85.84;100570.81;5026067;28;20489;-66
2022/10/15 05:18:48;;;;;;;35.00;26.00;;;;;;;13.51;86.15;100575.28;5030058;28;20030;-67
2022/10/15 05:21:16;;;;;;;33.47;24.67;;;;;;;13.53;86.05;100568.59;5029807;28;20021;-68
2022/10/15 05:23:43;;;;;;;37.28;25.88;;;;;;;13.51;85.59;100569.69;5029374;28;20068;-70
2022/10/15 05:26:14;;;;;;;32.88;25.88;;;;;;;13.52;85.76;100570.56;5029635;28;20021;-70
2022/10/15 05:28:39;;;;;;;35.40;24.95;;;;;;;13.53;85.66;100572.22;5030170;28;20056;-68
2022/10/15 05:31:07;;;;;;;33.45;25.23;;;;;;;13.50;85.30;100570.81;5029652;28;20481;-69
2022/10/15 05:33:32;;;;;;;35.00;26.42;;;;;;;13.51;85.74;100572.47;5030281;28;20049;-68
2022/10/15 05:36:11;;;;;;;34.88;25.42;;;;;;;13.51;85.60;100575.28;5030964;28;20123;-68
2022/10/15 05:38:36;;;;;;;34.03;25.23;;;;;;;13.50;85.38;100573.59;5030166;28;20017;-67
2022/10/15 05:41:02;;;;;;;31.35;25.67;;;;;;;13.47;85.61;100576.13;5029933;28;20040;-67
2022/10/15 05:43:27;;;;;;;33.65;25.65;;;;;;;13.47;85.72;100573.31;5029040;28;20065;-67
2022/10/15 05:45:53;;;;;;;32.17;24.33;;;;;;;13.51;85.50;100568.88;5026307;28;20017;-68
2022/10/15 05:48:19;;;;;;;32.80;25.63;;;;;;;13.43;85.65;100563.84;5029634;28;20057;-66
2022/10/15 05:50:44;;;;;;;33.92;25.50;;;;;;;13.46;85.84;100563.31;5028903;28;20459;-66
2022/10/15 05:53:09;;;;;;;33.58;25.90;;;;;;;13.46;85.43;100558.56;5029089;28;20025;-66
2022/10/15 05:55:34;;;;;;;31.88;25.55;;;;;;;13.47;85.26;100563.00;5021384;28;20014;-66
2022/10/15 05:58:02;;;;;;;34.28;26.00;;;;;;;13.46;85.77;100566.91;5020878;28;20061;-66
2022/10/15 06:00:27;;;;;;;32.17;25.45;;;;;;;13.46;85.60;100561.34;5021751;28;20107;-66
2022/10/15 06:02:52;;;;;;;35.53;26.73;;;;;;;13.46;85.59;100560.50;5030460;28;20057;-66
2022/10/15 06:05:18;;;;;;;34.40;25.85;;;;;;;13.48;85.31;100569.44;5029801;28;20025;-66
2022/10/15 06:07:43;;;;;;;31.42;24.83;;;;;;;13.46;85.33;100572.50;5030156;28;20025;-66
2022/10/15 06:10:08;;;;;;;32.50;26.20;;;;;;;13.49;85.50;100562.75;5030224;28;20112;-66
2022/10/15 06:12:34;;;;;;;36.63;27.00;;;;;;;13.48;85.27;100573.06;5029273;28;20083;-66
2022/10/15 06:14:59;;;;;;;33.15;26.52;;;;;;;13.50;85.27;100570.00;5033322;28;20077;-66
2022/10/15 06:17:24;;;;;;;34.00;25.65;;;;;;;13.48;85.55;100570.28;5032654;28;20026;-66
2022/10/15 06:19:49;;;;;;;34.88;26.60;;;;;;;13.50;85.04;100570.81;5033567;28;20033;-66
2022/10/15 06:22:15;;;;;;;39.10;27.85;;;;;;;13.45;85.42;100568.03;5034110;28;20032;-66
2022/10/15 06:24:40;;;;;;;33.88;26.52;;;;;;;13.50;85.30;100567.19;5033116;28;20136;-66
2022/10/15 06:27:05;;;;;;;37.90;26.70;;;;;;;13.51;85.35;100566.91;5033502;28;20025;-66
2022/10/15 06:29:30;;;;;;;37.65;28.45;;;;;;;13.50;85.51;100568.03;5034112;28;20033;-66
2022/10/15 06:31:56;;;;;;;34.90;27.88;;;;;;;13.47;85.08;100557.44;5016231;28;20404;-66
2022/10/15 06:34:21;;;;;;;36.67;28.00;;;;;;;13.50;85.48;100565.25;5013504;28;20033;-66
2022/10/15 06:36:46;;;;;;;41.03;30.63;;;;;;;13.50;84.96;100565.25;5021099;28;20446;-66
2022/10/15 06:39:11;;;;;;;41.92;30.02;;;;;;;13.50;85.47;100565.25;5032884;28;20033;-66
2022/10/15 06:41:37;;;;;;;45.45;31.98;;;;;;;13.46;85.39;100564.13;5030510;28;20021;-67
2022/10/15 06:44:02;;;;;;;41.65;31.23;;;;;;;13.46;85.21;100566.91;5033637;28;20021;-67
2022/10/15 06:46:27;;;;;;;44.80;31.95;;;;;;;13.46;85.05;100568.88;5032480;28;20033;-67
2022/10/15 06:48:54;;;;;;;46.83;32.50;;;;;;;13.46;85.14;100566.91;5028018;28;20039;-67
2022/10/15 06:51:20;;;;;;;43.53;31.45;;;;;;;13.45;84.98;100556.91;5032681;28;20424;-68
2022/10/15 06:53:45;;;;;;;40.00;30.95;;;;;;;13.47;85.33;100560.22;5031356;28;20034;-67
2022/10/15 06:56:10;;;;;;;45.40;32.60;;;;;;;13.48;85.19;100564.69;5028161;28;20028;-68
2022/10/15 06:58:35;;;;;;;40.15;31.60;;;;;;;13.46;85.33;100561.34;5033179;28;20036;-68
2022/10/15 07:01:03;;;;;;;40.05;30.85;;;;;;;13.46;85.35;100569.72;5018903;28;20088;-68
2022/10/15 07:03:28;;;;;;;41.33;29.05;;;;;;;13.48;85.23;100564.69;5012463;28;20022;-68
2022/10/15 07:05:54;;;;;;;35.33;28.20;;;;;;;13.44;84.96;100554.38;5013910;28;20056;-68
2022/10/15 07:08:20;;;;;;;36.90;28.48;;;;;;;13.46;85.25;100566.91;5013278;28;20034;-68
2022/10/15 07:10:46;;;;;;;35.47;27.55;;;;;;;13.48;85.40;100572.25;5027704;28;20033;-67
2022/10/15 07:13:11;;;;;;;33.20;27.20;;;;;;;13.48;85.34;100575.84;5033059;28;20106;-67
2022/10/15 07:15:36;;;;;;;32.58;26.13;;;;;;;13.50;85.08;100583.94;5023259;28;20033;-68
2022/10/15 07:18:02;;;;;;;32.65;24.80;;;;;;;13.50;85.05;100573.59;5012944;28;20156;-68
2022/10/15 07:20:29;;;;;;;30.02;22.92;;;;;;;13.55;84.97;100580.28;5015051;28;20060;-68
2022/10/15 07:22:59;;;;;;;31.92;24.15;;;;;;;13.54;84.72;100568.31;5027329;28;20045;-68
2022/10/15 07:25:25;;;;;;;30.80;24.38;;;;;;;13.58;85.14;100568.59;5013394;28;20109;-68
2022/10/15 07:27:50;;;;;;;35.22;24.98;;;;;;;13.58;84.96;100551.84;5013624;28;20033;-68
2022/10/15 07:30:15;;;;;;;31.67;23.77;;;;;;;13.62;85.19;100545.44;5012186;28;20393;-68
2022/10/15 07:32:41;;;;;;;31.40;23.90;;;;;;;13.65;84.97;100544.03;5013120;28;20072;-69
2022/10/15 07:35:06;;;;;;;28.63;22.85;;;;;;;13.65;85.39;100546.84;5017892;28;20083;-69
2022/10/15 07:37:32;;;;;;;31.38;23.52;;;;;;;13.67;85.65;100539.00;5018647;28;20030;-69
2022/10/15 07:39:57;;;;;;;29.50;22.58;;;;;;;13.68;85.16;100535.97;5028443;28;20031;-68
2022/10/15 07:42:23;;;;;;;29.58;22.73;;;;;;;13.73;84.93;100535.94;5032688;28;20385;-68
2022/10/15 07:44:48;;;;;;;28.90;22.65;;;;;;;13.74;85.02;100534.81;5019610;28;20068;-68
2022/10/15 07:47:13;;;;;;;30.38;22.95;;;;;;;13.74;85.22;100539.56;5012931;28;20120;-69
2022/10/15 07:49:38;;;;;;;30.77;21.63;;;;;;;13.77;84.54;100541.78;5012203;28;20042;-68
2022/10/15 07:52:04;;;;;;;26.80;20.80;;;;;;;13.79;84.50;100533.97;5012256;28;20085;-68
2022/10/15 07:54:31;;;;;;;29.25;21.48;;;;;;;13.88;84.96;100529.50;5012683;28;20084;-67
2022/10/15 07:56:57;;;;;;;27.52;21.08;;;;;;;13.97;84.89;100525.00;5012754;28;20046;-67
2022/10/15 07:59:22;;;;;;;25.33;19.20;;;;;;;13.98;84.21;100523.88;5011408;28;20535;-67
2022/10/15 08:01:47;;;;;;;26.15;18.80;;;;;;;14.00;84.41;100523.59;5012269;28;20034;-68
2022/10/15 08:04:13;;;;;;;25.42;18.83;;;;;;;13.99;84.56;100519.97;5026432;28;20018;-67
2022/10/15 08:06:38;;;;;;;23.20;17.50;;;;;;;14.00;84.28;100523.59;5031560;28;20061;-68
2022/10/15 08:09:04;;;;;;;21.90;16.52;;;;;;;13.98;84.14;100521.06;5016688;28;20065;-67
2022/10/15 08:11:29;;;;;;;21.65;16.77;;;;;;;13.98;84.56;100512.69;5024062;28;20103;-67
2022/10/15 08:13:55;;;;;;;23.17;16.92;;;;;;;14.04;84.96;100515.50;5031060;28;20124;-68
2022/10/15 08:16:20;;;;;;;22.77;16.92;;;;;;;14.06;84.28;100514.06;5032685;28;20147;-68
2022/10/15 08:18:45;;;;;;;22.25;15.43;;;;;;;14.07;84.51;100509.31;5032024;28;20022;-68
2022/10/15 08:21:11;;;;;;;19.98;15.02;;;;;;;14.09;84.62;100509.88;5031876;28;20099;-68
2022/10/15 08:23:37;;;;;;;17.20;13.85;;;;;;;14.09;84.76;100512.69;5017685;28;20034;-67
2022/10/15 08:26:03;;;;;;;18.15;14.55;;;;;;;14.10;84.40;100515.19;5011520;28;20022;-67
2022/10/15 08:28:30;;;;;;;16.80;12.82;;;;;;;14.11;84.46;100516.00;5012810;28;20032;-68
2022/10/15 08:31:00;;;;;;;15.32;13.18;;;;;;;14.11;84.35;100518.78;5012084;28;20112;-68
2022/10/15 08:33:25;;;;;;;15.38;12.18;;;;;;;14.10;84.49;100517.13;5011908;28;20093;-68
2022/10/15 08:35:51;;;;;;;15.20;11.82;;;;;;;14.11;84.27;100510.41;5031958;28;20091;-67
2022/10/15 08:38:16;;;;;;;14.77;11.25;;;;;;;14.09;84.73;100507.94;5028413;28;20041;-67
2022/10/15 08:40:47;;;;;;;14.80;10.88;;;;;;;14.09;84.78;100502.34;5011242;28;20392;-67
2022/10/15 08:43:42;;;;;;;14.57;10.70;;;;;;;14.10;85.17;100486.44;5011653;28;20052;-67
2022/10/15 08:46:14;;;;;;;11.93;10.23;;;;;;;14.10;84.78;100483.66;5020726;28;20476;-67
2022/10/15 08:48:47;;;;;;;14.27;9.75;;;;;;;14.11;84.83;100488.97;5028335;28;20037;-67
2022/10/15 08:51:17;;;;;;;11.57;9.77;;;;;;;14.16;85.32;100490.88;5030689;28;20048;-67
2022/10/15 08:53:48;;;;;;;12.35;9.32;;;;;;;14.18;84.96;100486.66;5023219;28;20033;-67
2022/10/15 08:56:25;;;;;;;12.27;9.05;;;;;;;14.19;84.96;100488.34;5011030;28;20069;-67
2022/10/15 08:59:06;;;;;;;10.85;8.05;;;;;;;14.20;84.79;100480.81;5011723;28;20026;-67
2022/10/15 09:01:40;;;;;;;10.60;7.53;;;;;;;14.19;84.78;100471.63;5010336;28;20034;-67
2022/10/15 09:04:24;;;;;;;9.73;7.88;;;;;;;14.20;84.43;100464.06;5011651;28;20323;-67
2022/10/15 09:07:14;;;;;;;12.57;7.75;;;;;;;14.23;84.69;100464.34;5022458;28;20109;-67
2022/10/15 09:09:57;;;;;;;8.98;7.45;;;;;;;14.26;84.44;100457.31;5002675;28;20045;-67
2022/10/15 09:12:47;;;;;;;10.98;7.75;;;;;;;14.28;84.44;100463.47;5030119;28;20042;-67
2022/10/15 09:15:15;;;;;;;8.30;7.25;;;;;;;14.28;84.75;100468.22;5026038;28;20061;-67
2022/10/15 09:17:45;;;;;;;9.98;7.90;;;;;;;14.30;84.33;100468.75;5021634;28;20026;-67
2022/10/15 09:20:16;;;;;;;9.43;7.47;;;;;;;14.28;85.07;100463.47;5027445;28;20025;-67
2022/10/15 09:22:43;;;;;;;8.90;7.40;;;;;;;14.30;84.69;100457.59;5027912;28;20025;-67
2022/10/15 09:25:17;;;;;;;9.85;7.55;;;;;;;14.31;84.86;100464.84;5029583;28;20441;-68
2022/10/15 09:27:45;;;;;;;8.98;7.22;;;;;;;14.31;84.81;100468.47;5030352;28;20025;-68
2022/10/15 09:30:38;;;;;;;9.30;7.10;;;;;;;14.34;84.86;100464.25;5029109;28;20029;-67
2022/10/15 09:33:12;;;;;;;8.05;6.95;;;;;;;14.35;85.18;100471.53;5031366;28;20086;-67
2022/10/15 09:35:53;;;;;;;7.32;6.00;;;;;;;14.36;85.06;100460.06;5029127;28;20499;-68
2022/10/15 09:38:30;;;;;;;8.23;5.63;;;;;;;14.36;85.14;100462.03;5028716;28;20154;-68
2022/10/15 09:41:06;;;;;;;8.52;6.00;;;;;;;14.39;85.94;100455.88;5030618;28;20116;-68
2022/10/15 09:43:36;;;;;;;8.43;6.40;;;;;;;14.37;86.29;100453.34;5029150;28;20512;-68
2022/10/15 09:46:02;;;;;;;9.50;5.93;;;;;;;14.39;86.70;100445.53;5029692;28;20447;-68
2022/10/15 09:48:32;;;;;;;7.75;5.75;;;;;;;14.40;87.04;100454.75;5031352;28;20025;-68
2022/10/15 09:51:05;;;;;;;6.45;5.07;;;;;;;14.39;87.45;100451.13;5031654;28;20040;-68
2022/10/15 09:53:51;;;;;;;6.03;5.20;;;;;;;14.39;87.92;100445.53;5034750;28;20021;-67
2022/10/15 09:56:23;;;;;;;6.07;4.80;;;;;;;14.39;87.87;100450.28;5026009;28;20052;-69
2022/10/15 09:58:53;;;;;;;6.70;4.90;;;;;;;14.40;88.47;100435.19;5029473;28;20354;-63
2022/10/15 10:01:21;;;;;;;5.57;4.22;;;;;;;14.42;88.55;100442.19;5026164;28;20754;-66
2022/10/15 10:03:52;;;;;;;5.55;4.72;;;;;;;14.43;88.95;100429.88;5025952;28;20064;-67
2022/10/15 10:06:17;;;;;;;5.70;4.13;;;;;;;14.44;88.98;100434.31;5028294;28;20040;-66
2022/10/15 10:08:53;;;;;;;4.95;4.32;;;;;;;14.46;89.30;100432.09;5033294;28;20037;-67
2022/10/15 10:11:20;;;;;;;7.93;4.40;;;;;;;14.46;89.45;100429.31;5026667;28;20033;-70
2022/10/15 10:13:59;;;;;;;5.45;3.88;;;;;;;14.47;89.65;100430.13;5033376;28;20136;-67
2022/10/15 10:16:25;;;;;;;5.18;4.07;;;;;;;14.47;89.87;100425.38;5028148;28;20038;-67
2022/10/15 10:19:20;;;;;;;5.25;4.60;;;;;;;14.52;89.51;100420.91;5022255;28;20489;-68
2022/10/15 10:21:46;;;;;;;5.78;4.28;;;;;;;14.51;89.53;100425.66;5022524;28;20042;-67
2022/10/15 10:24:18;;;;;;;6.00;3.70;;;;;;;14.54;89.62;100424.22;5029218;28;20096;-68
2022/10/15 10:26:44;;;;;;;;;;;;;;;14.59;88.35;100427.00;5017291;28;20033;-70
2022/10/15 10:29:17;;;;;;;4.25;3.28;;;;;;;14.59;89.80;100427.84;5027437;28;19921;-69
2022/10/15 10:31:43;;;;;;;3.95;3.00;;;;;;;14.60;89.75;100428.69;5032173;28;20071;-67
2022/10/15 10:34:16;;;;;;;3.22;2.72;;;;;;;14.62;89.91;100432.00;5030205;28;20041;-71
2022/10/15 10:36:41;;;;;;;2.90;2.53;;;;;;;14.64;90.14;100424.19;5031072;28;20392;-68
2022/10/15 10:39:12;;;;;;;3.05;2.50;;;;;;;14.66;90.12;100433.94;5031325;28;20120;-70
2022/10/15 10:41:57;;;;;;;4.07;2.55;;;;;;;14.69;89.86;100424.13;5029581;28;20037;-67
2022/10/15 10:44:29;;;;;;;2.85;2.10;;;;;;;14.70;90.01;100437.81;5028910;28;20358;-69
2022/10/15 10:47:06;;;;;;;2.42;2.22;;;;;;;14.73;90.49;100430.78;5017951;28;20056;-67
2022/10/15 10:49:43;;;;;;;3.05;2.30;;;;;;;14.76;90.13;100438.59;5021301;28;20037;-68
2022/10/15 10:52:23;;;;;;;3.58;2.20;;;;;;;14.78;90.49;100428.00;5026123;28;20041;-67
2022/10/15 10:55:01;;;;;;;3.00;2.38;;;;;;;14.80;90.51;100436.91;5029033;28;20461;-68
2022/10/15 10:57:49;;;;;;;3.88;2.60;;;;;;;14.84;90.84;100434.34;5030504;28;20076;-70
2022/10/15 11:00:43;;;;;;;4.60;2.80;;;;;;;14.86;91.36;100424.56;5028445;28;20088;-68
2022/10/15 11:03:20;;;;;;;3.38;2.80;;;;;;;14.87;91.36;100426.22;5029180;28;20091;-67
2022/10/15 11:05:54;;;;;;;3.60;3.25;;;;;;;14.89;91.78;100418.38;5017770;28;20076;-67
2022/10/15 11:08:34;;;;;;;3.38;3.08;;;;;;;14.91;92.06;100418.94;5012677;28;20059;-68
2022/10/15 11:11:34;;;;;;;6.43;3.20;;;;;;;14.94;91.50;100418.34;5025490;28;20116;-68
2022/10/15 11:14:08;;;;;;;3.58;2.88;;;;;;;14.97;91.73;100411.31;5023777;28;20060;-68
2022/10/15 11:16:40;;;;;;;3.35;3.05;;;;;;;15.00;91.81;100410.75;5019384;28;20125;-69
2022/10/15 11:19:33;;;;;;;3.88;2.92;;;;;;;15.03;92.03;100414.91;5019096;28;20030;-68
2022/10/15 11:22:42;;;;;;;4.40;3.00;;;;;;;15.07;91.94;100414.03;5028676;28;20728;-71